sensor_id;sensor_type;location;lat;lon;timestamp;P1;durP1;ratioP1;P2;durP2;ratioP2
34030;SDS011;20319;28.466;-16.274;2022-10-16T00:00:32;12.25;;;3.50;;
34030;SDS011;20319;28.466;-16.274;2022-10-16T00:02:59;12.93;;;4.72;;
34030;SDS011;20319;28.466;-16.274;2022-10-16T00:05:26;14.15;;;4.13;;
34030;SDS011;20319;28.466;-16.274;2022-10-16T00:07:52;11.48;;;3.05;;
34030;SDS011;20319;28.466;-16.274;2022-10-16T00:10:18;14.55;;;5.57;;
34030;SDS011;20319;28.466;-16.274;2022-10-16T00:12:43;12.18;;;4.63;;
34030;SDS011;20319;28.466;-16.274;2022-10-16T00:15:09;15.48;;;4.28;;
34030;SDS011;20319;28.466;-16.274;2022-10-16T00:17:35;12.70;;;5.25;;
34030;SDS011;20319;28.466;-16.274;2022-10-16T00:20:00;14.77;;;4.50;;
34030;SDS011;20319;28.466;-16.274;2022-10-16T00:22:26;9.45;;;2.92;;
34030;SDS011;20319;28.466;-16.274;2022-10-16T00:24:52;13.82;;;4.07;;
34030;SDS011;20319;28.466;-16.274;2022-10-16T00:27:17;9.48;;;2.88;;
34030;SDS011;20319;28.466;-16.274;2022-10-16T00:29:43;13.43;;;3.75;;
34030;SDS011;20319;28.466;-16.274;2022-10-16T00:32:09;11.43;;;3.97;;
34030;SDS011;20319;28.466;-16.274;2022-10-16T00:34:34;12.45;;;4.28;;
34030;SDS011;20319;28.466;-16.274;2022-10-16T00:37:00;11.25;;;3.17;;
34030;SDS011;20319;28.466;-16.274;2022-10-16T00:39:26;12.98;;;3.42;;
34030;SDS011;20319;28.466;-16.274;2022-10-16T00:41:51;15.02;;;3.63;;
34030;SDS011;20319;28.466;-16.274;2022-10-16T00:47:19;14.70;;;3.70;;
34030;SDS011;20319;28.466;-16.274;2022-10-16T00:49:59;15.20;;;3.50;;
34030;SDS011;20319;28.466;-16.274;2022-10-16T00:52:31;7.35;;;3.20;;
34030;SDS011;20319;28.466;-16.274;2022-10-16T00:54:56;11.23;;;3.00;;
34030;SDS011;20319;28.466;-16.274;2022-10-16T00:57:23;11.50;;;3.20;;
34030;SDS011;20319;28.466;-16.274;2022-10-16T00:59:50;12.77;;;3.50;;
34030;SDS011;20319;28.466;-16.274;2022-10-16T01:02:16;13.80;;;3.55;;
34030;SDS011;20319;28.466;-16.274;2022-10-16T01:04:52;11.88;;;4.10;;
34030;SDS011;20319;28.466;-16.274;2022-10-16T01:12:51;13.25;;;4.00;;
34030;SDS011;20319;28.466;-16.274;2022-10-16T01:18:01;12.27;;;3.45;;
34030;SDS011;20319;28.466;-16.274;2022-10-16T01:20:37;8.43;;;3.10;;
34030;SDS011;20319;28.466;-16.274;2022-10-16T01:31:57;8.95;;;3.05;;
34030;SDS011;20319;28.466;-16.274;2022-10-16T01:34:42;7.55;;;2.95;;
34030;SDS011;20319;28.466;-16.274;2022-10-16T01:37:18;13.00;;;3.20;;
34030;SDS011;20319;28.466;-16.274;2022-10-16T01:39:52;14.07;;;3.67;;
34030;SDS011;20319;28.466;-16.274;2022-10-16T01:42:24;9.88;;;3.05;;
34030;SDS011;20319;28.466;-16.274;2022-10-16T01:44:54;11.60;;;3.42;;
34030;SDS011;20319;28.466;-16.274;2022-10-16T01:47:24;10.48;;;2.90;;
34030;SDS011;20319;28.466;-16.274;2022-10-16T01:49:51;9.85;;;2.88;;
34030;SDS011;20319;28.466;-16.274;2022-10-16T01:52:20;10.85;;;3.33;;
34030;SDS011;20319;28.466;-16.274;2022-10-16T01:54:50;17.48;;;3.75;;
34030;SDS011;20319;28.466;-16.274;2022-10-16T01:57:19;10.63;;;3.30;;
34030;SDS011;20319;28.466;-16.274;2022-10-16T01:59:48;11.55;;;3.70;;
34030;SDS011;20319;28.466;-16.274;2022-10-16T02:02:18;10.68;;;3.00;;
34030;SDS011;20319;28.466;-16.274;2022-10-16T02:04:51;11.23;;;3.42;;
34030;SDS011;20319;28.466;-16.274;2022-10-16T02:07:23;10.73;;;3.10;;
34030;SDS011;20319;28.466;-16.274;2022-10-16T02:09:49;9.18;;;3.00;;
34030;SDS011;20319;28.466;-16.274;2022-10-16T02:12:18;11.10;;;3.30;;
34030;SDS011;20319;28.466;-16.274;2022-10-16T02:14:51;12.48;;;3.63;;
34030;SDS011;20319;28.466;-16.274;2022-10-16T02:17:17;12.55;;;3.70;;
34030;SDS011;20319;28.466;-16.274;2022-10-16T02:19:44;10.77;;;3.17;;
34030;SDS011;20319;28.466;-16.274;2022-10-16T02:22:15;9.00;;;2.92;;
34030;SDS011;20319;28.466;-16.274;2022-10-16T02:30:32;11.68;;;3.10;;
34030;SDS011;20319;28.466;-16.274;2022-10-16T02:33:02;10.70;;;3.25;;
34030;SDS011;20319;28.466;-16.274;2022-10-16T02:35:32;13.30;;;3.28;;
34030;SDS011;20319;28.466;-16.274;2022-10-16T02:37:58;8.70;;;2.97;;
34030;SDS011;20319;28.466;-16.274;2022-10-16T02:40:24;14.85;;;3.72;;
34030;SDS011;20319;28.466;-16.274;2022-10-16T02:42:52;9.93;;;3.15;;
34030;SDS011;20319;28.466;-16.274;2022-10-16T02:45:20;12.70;;;3.22;;
34030;SDS011;20319;28.466;-16.274;2022-10-16T02:47:46;10.13;;;2.85;;
34030;SDS011;20319;28.466;-16.274;2022-10-16T02:50:13;12.05;;;3.13;;
34030;SDS011;20319;28.466;-16.274;2022-10-16T02:52:38;13.18;;;3.70;;
34030;SDS011;20319;28.466;-16.274;2022-10-16T02:55:04;12.88;;;3.60;;
34030;SDS011;20319;28.466;-16.274;2022-10-16T02:57:30;9.23;;;2.75;;
34030;SDS011;20319;28.466;-16.274;2022-10-16T02:59:56;14.48;;;3.40;;
34030;SDS011;20319;28.466;-16.274;2022-10-16T03:02:22;11.65;;;3.10;;
34030;SDS011;20319;28.466;-16.274;2022-10-16T03:04:48;8.60;;;2.90;;
34030;SDS011;20319;28.466;-16.274;2022-10-16T03:07:14;10.73;;;2.78;;
34030;SDS011;20319;28.466;-16.274;2022-10-16T03:09:40;12.38;;;3.13;;
34030;SDS011;20319;28.466;-16.274;2022-10-16T03:12:05;11.02;;;2.88;;
34030;SDS011;20319;28.466;-16.274;2022-10-16T03:14:31;10.48;;;3.10;;
34030;SDS011;20319;28.466;-16.274;2022-10-16T03:16:57;9.88;;;2.95;;
34030;SDS011;20319;28.466;-16.274;2022-10-16T03:19:23;8.60;;;3.13;;
34030;SDS011;20319;28.466;-16.274;2022-10-16T03:21:49;9.32;;;2.78;;
34030;SDS011;20319;28.466;-16.274;2022-10-16T03:24:15;9.45;;;2.88;;
34030;SDS011;20319;28.466;-16.274;2022-10-16T03:26:40;14.60;;;3.78;;
34030;SDS011;20319;28.466;-16.274;2022-10-16T03:29:06;13.27;;;3.33;;
34030;SDS011;20319;28.466;-16.274;2022-10-16T03:31:32;12.65;;;3.28;;
34030;SDS011;20319;28.466;-16.274;2022-10-16T03:33:57;10.60;;;3.30;;
34030;SDS011;20319;28.466;-16.274;2022-10-16T03:36:23;12.32;;;3.17;;
34030;SDS011;20319;28.466;-16.274;2022-10-16T03:38:49;14.82;;;3.33;;
34030;SDS011;20319;28.466;-16.274;2022-10-16T03:41:14;9.00;;;2.90;;
34030;SDS011;20319;28.466;-16.274;2022-10-16T03:43:40;11.82;;;3.22;;
34030;SDS011;20319;28.466;-16.274;2022-10-16T03:46:06;15.43;;;3.60;;
34030;SDS011;20319;28.466;-16.274;2022-10-16T03:48:31;13.18;;;2.90;;
34030;SDS011;20319;28.466;-16.274;2022-10-16T03:50:57;16.42;;;2.88;;
34030;SDS011;20319;28.466;-16.274;2022-10-16T03:53:24;10.70;;;3.47;;
34030;SDS011;20319;28.466;-16.274;2022-10-16T03:55:49;13.25;;;3.10;;
34030;SDS011;20319;28.466;-16.274;2022-10-16T03:58:15;11.23;;;3.25;;
34030;SDS011;20319;28.466;-16.274;2022-10-16T04:00:42;8.73;;;2.90;;
34030;SDS011;20319;28.466;-16.274;2022-10-16T04:03:08;10.77;;;3.30;;
34030;SDS011;20319;28.466;-16.274;2022-10-16T04:05:35;11.90;;;2.88;;
34030;SDS011;20319;28.466;-16.274;2022-10-16T04:08:00;13.43;;;3.15;;
34030;SDS011;20319;28.466;-16.274;2022-10-16T04:10:26;11.88;;;3.60;;
34030;SDS011;20319;28.466;-16.274;2022-10-16T04:12:52;9.90;;;2.88;;
34030;SDS011;20319;28.466;-16.274;2022-10-16T04:15:19;8.25;;;2.83;;
34030;SDS011;20319;28.466;-16.274;2022-10-16T04:17:45;12.07;;;3.33;;
34030;SDS011;20319;28.466;-16.274;2022-10-16T04:20:11;11.38;;;2.90;;
34030;SDS011;20319;28.466;-16.274;2022-10-16T04:22:37;14.30;;;3.45;;
34030;SDS011;20319;28.466;-16.274;2022-10-16T04:25:03;12.27;;;3.40;;
34030;SDS011;20319;28.466;-16.274;2022-10-16T04:27:29;9.18;;;2.85;;
34030;SDS011;20319;28.466;-16.274;2022-10-16T04:29:56;12.98;;;3.15;;
34030;SDS011;20319;28.466;-16.274;2022-10-16T04:32:23;11.15;;;2.95;;
34030;SDS011;20319;28.466;-16.274;2022-10-16T04:34:55;11.25;;;2.70;;
34030;SDS011;20319;28.466;-16.274;2022-10-16T04:37:28;10.30;;;2.90;;
34030;SDS011;20319;28.466;-16.274;2022-10-16T04:39:53;9.77;;;3.00;;
34030;SDS011;20319;28.466;-16.274;2022-10-16T04:42:20;8.32;;;2.78;;
34030;SDS011;20319;28.466;-16.274;2022-10-16T04:44:46;11.48;;;3.35;;
34030;SDS011;20319;28.466;-16.274;2022-10-16T04:47:12;12.10;;;3.42;;
34030;SDS011;20319;28.466;-16.274;2022-10-16T04:49:38;9.18;;;2.70;;
34030;SDS011;20319;28.466;-16.274;2022-10-16T04:52:04;8.80;;;2.80;;
34030;SDS011;20319;28.466;-16.274;2022-10-16T04:54:29;13.40;;;3.08;;
34030;SDS011;20319;28.466;-16.274;2022-10-16T04:56:55;9.82;;;2.95;;
34030;SDS011;20319;28.466;-16.274;2022-10-16T04:59:20;11.55;;;2.92;;
34030;SDS011;20319;28.466;-16.274;2022-10-16T05:01:47;11.98;;;3.20;;
34030;SDS011;20319;28.466;-16.274;2022-10-16T05:04:13;11.95;;;2.80;;
34030;SDS011;20319;28.466;-16.274;2022-10-16T05:06:40;13.55;;;3.03;;
34030;SDS011;20319;28.466;-16.274;2022-10-16T05:09:06;11.75;;;2.78;;
34030;SDS011;20319;28.466;-16.274;2022-10-16T05:11:32;11.95;;;3.28;;
34030;SDS011;20319;28.466;-16.274;2022-10-16T05:13:58;13.65;;;3.03;;
34030;SDS011;20319;28.466;-16.274;2022-10-16T05:16:24;10.23;;;3.17;;
34030;SDS011;20319;28.466;-16.274;2022-10-16T05:18:53;12.48;;;3.65;;
34030;SDS011;20319;28.466;-16.274;2022-10-16T05:21:20;12.02;;;2.83;;
34030;SDS011;20319;28.466;-16.274;2022-10-16T05:23:45;13.35;;;3.10;;
34030;SDS011;20319;28.466;-16.274;2022-10-16T05:26:11;15.30;;;3.75;;
34030;SDS011;20319;28.466;-16.274;2022-10-16T05:28:37;11.73;;;2.85;;
34030;SDS011;20319;28.466;-16.274;2022-10-16T05:31:06;12.60;;;3.20;;
34030;SDS011;20319;28.466;-16.274;2022-10-16T05:33:33;9.23;;;3.38;;
34030;SDS011;20319;28.466;-16.274;2022-10-16T05:36:06;8.88;;;2.75;;
34030;SDS011;20319;28.466;-16.274;2022-10-16T05:38:33;12.38;;;3.20;;
34030;SDS011;20319;28.466;-16.274;2022-10-16T05:41:00;10.85;;;3.25;;
34030;SDS011;20319;28.466;-16.274;2022-10-16T05:43:27;13.38;;;3.00;;
34030;SDS011;20319;28.466;-16.274;2022-10-16T05:46:03;9.90;;;2.90;;
34030;SDS011;20319;28.466;-16.274;2022-10-16T05:48:30;11.77;;;3.08;;
34030;SDS011;20319;28.466;-16.274;2022-10-16T05:50:59;13.88;;;3.45;;
34030;SDS011;20319;28.466;-16.274;2022-10-16T05:53:28;14.48;;;3.30;;
34030;SDS011;20319;28.466;-16.274;2022-10-16T05:55:55;12.98;;;3.47;;
34030;SDS011;20319;28.466;-16.274;2022-10-16T05:58:21;14.60;;;4.55;;
34030;SDS011;20319;28.466;-16.274;2022-10-16T06:00:54;10.52;;;3.20;;
34030;SDS011;20319;28.466;-16.274;2022-10-16T06:03:30;12.45;;;3.85;;
34030;SDS011;20319;28.466;-16.274;2022-10-16T06:05:55;11.18;;;3.20;;
34030;SDS011;20319;28.466;-16.274;2022-10-16T06:08:21;13.98;;;3.60;;
34030;SDS011;20319;28.466;-16.274;2022-10-16T06:10:48;12.07;;;3.08;;
34030;SDS011;20319;28.466;-16.274;2022-10-16T06:13:14;15.27;;;4.57;;
34030;SDS011;20319;28.466;-16.274;2022-10-16T06:15:41;12.73;;;3.35;;
34030;SDS011;20319;28.466;-16.274;2022-10-16T06:18:10;14.70;;;4.05;;
34030;SDS011;20319;28.466;-16.274;2022-10-16T06:20:37;13.88;;;3.05;;
34030;SDS011;20319;28.466;-16.274;2022-10-16T06:23:02;14.98;;;3.20;;
34030;SDS011;20319;28.466;-16.274;2022-10-16T06:25:29;15.48;;;3.20;;
34030;SDS011;20319;28.466;-16.274;2022-10-16T06:27:57;12.35;;;3.28;;
34030;SDS011;20319;28.466;-16.274;2022-10-16T06:30:23;13.40;;;3.03;;
34030;SDS011;20319;28.466;-16.274;2022-10-16T06:32:49;15.57;;;3.65;;
34030;SDS011;20319;28.466;-16.274;2022-10-16T06:35:14;12.15;;;3.22;;
34030;SDS011;20319;28.466;-16.274;2022-10-16T06:37:40;13.85;;;3.20;;
34030;SDS011;20319;28.466;-16.274;2022-10-16T06:40:06;21.08;;;3.53;;
34030;SDS011;20319;28.466;-16.274;2022-10-16T06:42:32;18.23;;;5.80;;
34030;SDS011;20319;28.466;-16.274;2022-10-16T06:44:57;13.75;;;5.82;;
34030;SDS011;20319;28.466;-16.274;2022-10-16T06:47:23;12.82;;;3.38;;
34030;SDS011;20319;28.466;-16.274;2022-10-16T06:49:49;14.43;;;3.80;;
34030;SDS011;20319;28.466;-16.274;2022-10-16T06:52:14;9.73;;;3.00;;
34030;SDS011;20319;28.466;-16.274;2022-10-16T06:54:40;10.68;;;3.20;;
34030;SDS011;20319;28.466;-16.274;2022-10-16T06:57:05;13.10;;;3.88;;
34030;SDS011;20319;28.466;-16.274;2022-10-16T06:59:31;10.93;;;3.05;;
34030;SDS011;20319;28.466;-16.274;2022-10-16T07:01:56;13.55;;;2.80;;
34030;SDS011;20319;28.466;-16.274;2022-10-16T07:04:22;14.38;;;3.22;;
34030;SDS011;20319;28.466;-16.274;2022-10-16T07:06:48;10.93;;;3.35;;
34030;SDS011;20319;28.466;-16.274;2022-10-16T07:09:13;9.75;;;3.05;;
34030;SDS011;20319;28.466;-16.274;2022-10-16T07:11:39;13.05;;;3.17;;
34030;SDS011;20319;28.466;-16.274;2022-10-16T07:14:05;10.50;;;3.25;;
34030;SDS011;20319;28.466;-16.274;2022-10-16T07:16:44;14.75;;;3.33;;
34030;SDS011;20319;28.466;-16.274;2022-10-16T07:19:10;13.18;;;2.95;;
34030;SDS011;20319;28.466;-16.274;2022-10-16T07:21:37;18.05;;;3.58;;
34030;SDS011;20319;28.466;-16.274;2022-10-16T07:24:04;11.82;;;3.03;;
34030;SDS011;20319;28.466;-16.274;2022-10-16T07:26:32;10.95;;;2.80;;
34030;SDS011;20319;28.466;-16.274;2022-10-16T07:29:00;13.00;;;2.92;;
34030;SDS011;20319;28.466;-16.274;2022-10-16T07:31:26;11.98;;;3.10;;
34030;SDS011;20319;28.466;-16.274;2022-10-16T07:33:52;14.15;;;3.15;;
34030;SDS011;20319;28.466;-16.274;2022-10-16T07:36:19;12.88;;;3.58;;
34030;SDS011;20319;28.466;-16.274;2022-10-16T07:38:46;12.73;;;3.53;;
34030;SDS011;20319;28.466;-16.274;2022-10-16T07:41:13;8.73;;;3.35;;
34030;SDS011;20319;28.466;-16.274;2022-10-16T07:43:40;13.10;;;3.38;;
34030;SDS011;20319;28.466;-16.274;2022-10-16T07:46:10;14.27;;;3.22;;
34030;SDS011;20319;28.466;-16.274;2022-10-16T07:48:35;10.07;;;2.88;;
34030;SDS011;20319;28.466;-16.274;2022-10-16T07:51:01;10.27;;;3.08;;
34030;SDS011;20319;28.466;-16.274;2022-10-16T07:53:29;12.13;;;2.88;;
34030;SDS011;20319;28.466;-16.274;2022-10-16T07:55:58;15.32;;;3.47;;
34030;SDS011;20319;28.466;-16.274;2022-10-16T07:58:28;12.13;;;3.17;;
34030;SDS011;20319;28.466;-16.274;2022-10-16T08:00:54;14.43;;;3.55;;
34030;SDS011;20319;28.466;-16.274;2022-10-16T08:03:20;12.02;;;3.22;;
34030;SDS011;20319;28.466;-16.274;2022-10-16T08:05:46;10.13;;;2.70;;
34030;SDS011;20319;28.466;-16.274;2022-10-16T08:08:12;12.65;;;3.25;;
34030;SDS011;20319;28.466;-16.274;2022-10-16T08:10:39;8.88;;;2.70;;
34030;SDS011;20319;28.466;-16.274;2022-10-16T08:13:05;14.63;;;3.40;;
34030;SDS011;20319;28.466;-16.274;2022-10-16T08:15:31;9.43;;;3.80;;
34030;SDS011;20319;28.466;-16.274;2022-10-16T08:17:57;14.13;;;4.93;;
34030;SDS011;20319;28.466;-16.274;2022-10-16T08:20:24;10.57;;;4.30;;
34030;SDS011;20319;28.466;-16.274;2022-10-16T08:22:51;13.00;;;4.65;;
34030;SDS011;20319;28.466;-16.274;2022-10-16T08:25:17;13.07;;;3.00;;
34030;SDS011;20319;28.466;-16.274;2022-10-16T08:27:43;10.80;;;3.40;;
34030;SDS011;20319;28.466;-16.274;2022-10-16T08:30:09;8.25;;;4.18;;
34030;SDS011;20319;28.466;-16.274;2022-10-16T08:32:35;12.93;;;4.90;;
34030;SDS011;20319;28.466;-16.274;2022-10-16T08:35:01;29.60;;;22.73;;
34030;SDS011;20319;28.466;-16.274;2022-10-16T08:37:33;18.75;;;13.48;;
34030;SDS011;20319;28.466;-16.274;2022-10-16T08:40:03;23.15;;;18.45;;
34030;SDS011;20319;28.466;-16.274;2022-10-16T08:42:40;14.23;;;6.18;;
34030;SDS011;20319;28.466;-16.274;2022-10-16T08:48:41;17.05;;;10.27;;
34030;SDS011;20319;28.466;-16.274;2022-10-16T08:51:12;13.63;;;7.95;;
34030;SDS011;20319;28.466;-16.274;2022-10-16T08:54:01;10.60;;;4.55;;
34030;SDS011;20319;28.466;-16.274;2022-10-16T08:56:29;17.63;;;5.90;;
34030;SDS011;20319;28.466;-16.274;2022-10-16T08:58:55;11.55;;;5.07;;
34030;SDS011;20319;28.466;-16.274;2022-10-16T09:01:23;14.55;;;6.97;;
34030;SDS011;20319;28.466;-16.274;2022-10-16T09:17:33;13.07;;;4.88;;
34030;SDS011;20319;28.466;-16.274;2022-10-16T09:20:26;16.65;;;8.90;;
34030;SDS011;20319;28.466;-16.274;2022-10-16T09:23:36;25.67;;;18.35;;
34030;SDS011;20319;28.466;-16.274;2022-10-16T09:26:01;14.50;;;7.65;;
34030;SDS011;20319;28.466;-16.274;2022-10-16T09:28:28;14.25;;;7.35;;
34030;SDS011;20319;28.466;-16.274;2022-10-16T09:30:54;19.10;;;10.38;;
34030;SDS011;20319;28.466;-16.274;2022-10-16T09:33:28;27.35;;;17.02;;
34030;SDS011;20319;28.466;-16.274;2022-10-16T09:35:58;27.00;;;18.77;;
34030;SDS011;20319;28.466;-16.274;2022-10-16T09:38:31;20.25;;;12.57;;
34030;SDS011;20319;28.466;-16.274;2022-10-16T09:44:00;16.73;;;5.55;;
34030;SDS011;20319;28.466;-16.274;2022-10-16T09:46:31;16.83;;;6.50;;
34030;SDS011;20319;28.466;-16.274;2022-10-16T09:49:16;15.25;;;4.60;;
34030;SDS011;20319;28.466;-16.274;2022-10-16T09:51:44;14.82;;;4.07;;
34030;SDS011;20319;28.466;-16.274;2022-10-16T09:56:40;14.20;;;4.90;;
34030;SDS011;20319;28.466;-16.274;2022-10-16T09:59:13;9.65;;;4.13;;
34030;SDS011;20319;28.466;-16.274;2022-10-16T10:01:56;17.25;;;4.00;;
34030;SDS011;20319;28.466;-16.274;2022-10-16T10:04:36;12.57;;;3.30;;
34030;SDS011;20319;28.466;-16.274;2022-10-16T10:07:06;11.18;;;3.78;;
34030;SDS011;20319;28.466;-16.274;2022-10-16T10:09:44;11.00;;;3.55;;
34030;SDS011;20319;28.466;-16.274;2022-10-16T10:12:18;8.73;;;3.17;;
34030;SDS011;20319;28.466;-16.274;2022-10-16T10:14:49;8.00;;;2.72;;
34030;SDS011;20319;28.466;-16.274;2022-10-16T10:17:21;10.45;;;3.75;;
34030;SDS011;20319;28.466;-16.274;2022-10-16T10:19:57;11.38;;;2.92;;
34030;SDS011;20319;28.466;-16.274;2022-10-16T10:22:42;11.82;;;2.97;;
34030;SDS011;20319;28.466;-16.274;2022-10-16T10:27:42;13.55;;;4.05;;
34030;SDS011;20319;28.466;-16.274;2022-10-16T10:30:24;13.00;;;3.90;;
34030;SDS011;20319;28.466;-16.274;2022-10-16T10:35:35;10.90;;;3.50;;
34030;SDS011;20319;28.466;-16.274;2022-10-16T10:41:49;13.30;;;3.45;;
34030;SDS011;20319;28.466;-16.274;2022-10-16T10:52:17;12.70;;;3.38;;
34030;SDS011;20319;28.466;-16.274;2022-10-16T10:57:54;12.75;;;3.97;;
34030;SDS011;20319;28.466;-16.274;2022-10-16T11:00:53;9.30;;;3.10;;
34030;SDS011;20319;28.466;-16.274;2022-10-16T11:09:38;13.93;;;3.60;;
34030;SDS011;20319;28.466;-16.274;2022-10-16T11:12:25;11.80;;;3.33;;
34030;SDS011;20319;28.466;-16.274;2022-10-16T11:15:07;15.35;;;3.78;;
34030;SDS011;20319;28.466;-16.274;2022-10-16T11:17:40;10.95;;;3.10;;
34030;SDS011;20319;28.466;-16.274;2022-10-16T11:23:02;14.23;;;3.65;;
34030;SDS011;20319;28.466;-16.274;2022-10-16T11:25:31;11.57;;;3.28;;
34030;SDS011;20319;28.466;-16.274;2022-10-16T11:30:30;12.60;;;3.90;;
34030;SDS011;20319;28.466;-16.274;2022-10-16T11:38:14;12.98;;;3.30;;
34030;SDS011;20319;28.466;-16.274;2022-10-16T11:40:47;12.70;;;3.92;;
34030;SDS011;20319;28.466;-16.274;2022-10-16T11:43:19;10.93;;;3.42;;
34030;SDS011;20319;28.466;-16.274;2022-10-16T11:45:54;11.30;;;3.47;;
34030;SDS011;20319;28.466;-16.274;2022-10-16T11:48:27;10.63;;;3.63;;
34030;SDS011;20319;28.466;-16.274;2022-10-16T11:51:38;13.98;;;3.38;;
34030;SDS011;20319;28.466;-16.274;2022-10-16T11:54:14;12.68;;;3.13;;
34030;SDS011;20319;28.466;-16.274;2022-10-16T11:56:43;12.52;;;3.60;;
34030;SDS011;20319;28.466;-16.274;2022-10-16T12:01:40;15.95;;;3.42;;
34030;SDS011;20319;28.466;-16.274;2022-10-16T12:04:43;14.27;;;3.08;;
34030;SDS011;20319;28.466;-16.274;2022-10-16T12:07:11;13.45;;;3.20;;
34030;SDS011;20319;28.466;-16.274;2022-10-16T12:09:42;8.88;;;3.33;;
34030;SDS011;20319;28.466;-16.274;2022-10-16T12:12:25;15.82;;;3.70;;
34030;SDS011;20319;28.466;-16.274;2022-10-16T12:15:03;12.47;;;3.33;;
34030;SDS011;20319;28.466;-16.274;2022-10-16T12:17:49;13.35;;;3.22;;
34030;SDS011;20319;28.466;-16.274;2022-10-16T12:25:24;9.95;;;3.08;;
34030;SDS011;20319;28.466;-16.274;2022-10-16T12:28:04;12.20;;;3.53;;
34030;SDS011;20319;28.466;-16.274;2022-10-16T12:30:42;14.60;;;3.55;;
34030;SDS011;20319;28.466;-16.274;2022-10-16T12:33:22;9.60;;;3.25;;
34030;SDS011;20319;28.466;-16.274;2022-10-16T12:35:53;11.73;;;3.90;;
34030;SDS011;20319;28.466;-16.274;2022-10-16T12:41:01;13.85;;;4.40;;
34030;SDS011;20319;28.466;-16.274;2022-10-16T12:43:34;15.27;;;4.35;;
34030;SDS011;20319;28.466;-16.274;2022-10-16T12:48:46;8.70;;;3.63;;
34030;SDS011;20319;28.466;-16.274;2022-10-16T12:51:23;17.30;;;7.43;;
34030;SDS011;20319;28.466;-16.274;2022-10-16T12:54:11;17.90;;;8.95;;
34030;SDS011;20319;28.466;-16.274;2022-10-16T13:04:55;13.02;;;3.92;;
34030;SDS011;20319;28.466;-16.274;2022-10-16T13:07:47;11.40;;;3.85;;
34030;SDS011;20319;28.466;-16.274;2022-10-16T13:30:23;10.80;;;3.30;;
34030;SDS011;20319;28.466;-16.274;2022-10-16T13:33:00;9.15;;;2.95;;
34030;SDS011;20319;28.466;-16.274;2022-10-16T13:35:29;31.05;;;26.35;;
34030;SDS011;20319;28.466;-16.274;2022-10-16T13:38:05;35.28;;;27.77;;
34030;SDS011;20319;28.466;-16.274;2022-10-16T13:40:52;17.52;;;10.75;;
34030;SDS011;20319;28.466;-16.274;2022-10-16T13:43:28;24.05;;;12.18;;
34030;SDS011;20319;28.466;-16.274;2022-10-16T13:46:04;16.70;;;7.68;;
34030;SDS011;20319;28.466;-16.274;2022-10-16T13:48:30;14.98;;;6.72;;
34030;SDS011;20319;28.466;-16.274;2022-10-16T13:51:00;14.27;;;8.10;;
34030;SDS011;20319;28.466;-16.274;2022-10-16T13:53:27;17.90;;;11.25;;
34030;SDS011;20319;28.466;-16.274;2022-10-16T13:55:56;15.60;;;9.02;;
34030;SDS011;20319;28.466;-16.274;2022-10-16T13:58:21;13.20;;;6.13;;
34030;SDS011;20319;28.466;-16.274;2022-10-16T14:00:54;15.25;;;7.20;;
34030;SDS011;20319;28.466;-16.274;2022-10-16T14:03:43;15.63;;;5.55;;
34030;SDS011;20319;28.466;-16.274;2022-10-16T14:06:13;10.60;;;3.92;;
34030;SDS011;20319;28.466;-16.274;2022-10-16T14:08:42;16.00;;;5.35;;
34030;SDS011;20319;28.466;-16.274;2022-10-16T14:11:10;9.40;;;3.30;;
34030;SDS011;20319;28.466;-16.274;2022-10-16T14:13:38;12.48;;;4.72;;
34030;SDS011;20319;28.466;-16.274;2022-10-16T14:16:09;13.00;;;4.32;;
34030;SDS011;20319;28.466;-16.274;2022-10-16T14:18:40;11.02;;;3.38;;
34030;SDS011;20319;28.466;-16.274;2022-10-16T14:21:06;12.98;;;3.72;;
34030;SDS011;20319;28.466;-16.274;2022-10-16T14:23:37;10.55;;;3.40;;
34030;SDS011;20319;28.466;-16.274;2022-10-16T14:26:05;10.35;;;3.60;;
34030;SDS011;20319;28.466;-16.274;2022-10-16T14:28:34;11.77;;;3.45;;
34030;SDS011;20319;28.466;-16.274;2022-10-16T14:33:45;10.32;;;3.30;;
34030;SDS011;20319;28.466;-16.274;2022-10-16T14:38:40;9.57;;;3.33;;
34030;SDS011;20319;28.466;-16.274;2022-10-16T14:41:08;12.65;;;3.50;;
34030;SDS011;20319;28.466;-16.274;2022-10-16T14:43:38;9.35;;;3.15;;
34030;SDS011;20319;28.466;-16.274;2022-10-16T14:46:16;10.18;;;3.45;;
34030;SDS011;20319;28.466;-16.274;2022-10-16T14:48:47;13.35;;;3.10;;
34030;SDS011;20319;28.466;-16.274;2022-10-16T14:51:16;14.57;;;3.95;;
34030;SDS011;20319;28.466;-16.274;2022-10-16T14:53:43;12.02;;;3.35;;
34030;SDS011;20319;28.466;-16.274;2022-10-16T14:56:20;13.13;;;3.38;;
34030;SDS011;20319;28.466;-16.274;2022-10-16T14:58:49;13.45;;;3.55;;
34030;SDS011;20319;28.466;-16.274;2022-10-16T15:01:15;10.38;;;3.40;;
34030;SDS011;20319;28.466;-16.274;2022-10-16T15:03:41;15.35;;;3.67;;
34030;SDS011;20319;28.466;-16.274;2022-10-16T15:06:14;10.55;;;4.18;;
34030;SDS011;20319;28.466;-16.274;2022-10-16T15:11:13;17.65;;;13.02;;
34030;SDS011;20319;28.466;-16.274;2022-10-16T15:13:41;20.52;;;11.63;;
34030;SDS011;20319;28.466;-16.274;2022-10-16T15:16:16;13.25;;;5.10;;
34030;SDS011;20319;28.466;-16.274;2022-10-16T15:18:42;14.88;;;5.55;;
34030;SDS011;20319;28.466;-16.274;2022-10-16T15:21:23;13.65;;;5.38;;
34030;SDS011;20319;28.466;-16.274;2022-10-16T15:23:51;14.10;;;5.10;;
34030;SDS011;20319;28.466;-16.274;2022-10-16T15:26:17;12.27;;;4.25;;
34030;SDS011;20319;28.466;-16.274;2022-10-16T15:28:42;13.68;;;5.25;;
34030;SDS011;20319;28.466;-16.274;2022-10-16T15:31:08;9.20;;;3.60;;
34030;SDS011;20319;28.466;-16.274;2022-10-16T15:33:34;12.70;;;4.20;;
34030;SDS011;20319;28.466;-16.274;2022-10-16T15:36:00;12.07;;;4.25;;
34030;SDS011;20319;28.466;-16.274;2022-10-16T15:38:27;12.63;;;4.07;;
34030;SDS011;20319;28.466;-16.274;2022-10-16T15:40:53;12.95;;;3.95;;
34030;SDS011;20319;28.466;-16.274;2022-10-16T15:43:19;14.07;;;4.25;;
34030;SDS011;20319;28.466;-16.274;2022-10-16T15:46:01;12.00;;;3.70;;
34030;SDS011;20319;28.466;-16.274;2022-10-16T15:48:30;9.65;;;3.35;;
34030;SDS011;20319;28.466;-16.274;2022-10-16T15:50:56;11.95;;;3.67;;
34030;SDS011;20319;28.466;-16.274;2022-10-16T15:53:21;12.63;;;3.78;;
34030;SDS011;20319;28.466;-16.274;2022-10-16T15:55:47;12.40;;;4.20;;
34030;SDS011;20319;28.466;-16.274;2022-10-16T15:58:13;11.32;;;3.55;;
34030;SDS011;20319;28.466;-16.274;2022-10-16T16:00:38;11.95;;;3.63;;
34030;SDS011;20319;28.466;-16.274;2022-10-16T16:03:04;15.00;;;3.40;;
34030;SDS011;20319;28.466;-16.274;2022-10-16T16:05:29;13.77;;;3.60;;
34030;SDS011;20319;28.466;-16.274;2022-10-16T16:07:55;15.48;;;3.58;;
34030;SDS011;20319;28.466;-16.274;2022-10-16T16:10:22;13.68;;;3.88;;
34030;SDS011;20319;28.466;-16.274;2022-10-16T16:12:48;13.85;;;3.67;;
34030;SDS011;20319;28.466;-16.274;2022-10-16T16:15:17;11.68;;;4.05;;
34030;SDS011;20319;28.466;-16.274;2022-10-16T16:17:43;12.98;;;3.75;;
34030;SDS011;20319;28.466;-16.274;2022-10-16T16:20:09;11.50;;;3.30;;
34030;SDS011;20319;28.466;-16.274;2022-10-16T16:22:36;14.35;;;6.35;;
34030;SDS011;20319;28.466;-16.274;2022-10-16T16:25:01;18.27;;;11.88;;
34030;SDS011;20319;28.466;-16.274;2022-10-16T16:27:30;20.25;;;14.80;;
34030;SDS011;20319;28.466;-16.274;2022-10-16T16:30:03;15.00;;;7.18;;
34030;SDS011;20319;28.466;-16.274;2022-10-16T16:32:32;13.18;;;4.85;;
34030;SDS011;20319;28.466;-16.274;2022-10-16T16:35:03;11.95;;;4.90;;
34030;SDS011;20319;28.466;-16.274;2022-10-16T16:40:11;14.38;;;6.13;;